Time;durP1;ratioP1;P1;durP2;ratioP2;P2;SDS_P1;SDS_P2;PMS_P1;PMS_P2;Temp;Humidity;BMP_temperature;BMP_pressure;BME280_temperature;BME280_humidity;BME280_pressure;Samples;Min_cycle;Max_cycle;Signal;HPM_P1;HPM_P2
2023/07/18 00:01:13;;;;;;;1999.90;999.90;;;;;;;26.15;42.94;102171.09;5071722;28;20030;-71
2023/07/18 00:03:39;;;;;;;1999.90;999.90;;;;;;;26.12;42.86;102160.53;5052613;28;20032;-71
2023/07/18 00:06:05;;;;;;;1999.90;999.90;;;;;;;26.00;43.08;102160.22;5053009;28;20469;-72
2023/07/18 00:08:30;;;;;;;1999.90;999.90;;;;;;;25.95;43.45;102161.41;5053519;28;20115;-72
2023/07/18 00:10:56;;;;;;;1999.90;999.90;;;;;;;26.24;42.79;102158.03;5071068;28;20025;-71
2023/07/18 00:13:21;;;;;;;1999.90;999.90;;;;;;;25.96;43.57;102155.13;5052896;28;20539;-72
2023/07/18 00:15:47;;;;;;;1999.90;999.90;;;;;;;26.13;42.82;102157.78;5071075;28;20476;-72
2023/07/18 00:18:12;;;;;;;1999.90;999.90;;;;;;;25.55;43.82;102149.25;5053504;28;20074;-71
2023/07/18 00:20:38;;;;;;;1999.90;999.90;;;;;;;25.91;43.36;102153.56;5052485;28;20373;-71
2023/07/18 00:23:03;;;;;;;1999.90;999.90;;;;;;;25.77;43.46;102148.06;5053434;28;20024;-72
2023/07/18 00:25:29;;;;;;;1999.90;999.90;;;;;;;25.75;43.42;102149.97;5053311;28;20031;-72
2023/07/18 00:27:54;;;;;;;1999.90;999.90;;;;;;;25.61;43.59;102148.03;5052411;28;20027;-71
2023/07/18 00:30:21;;;;;;;1999.90;999.90;;;;;;;25.60;43.50;102146.31;5052844;28;20108;-72
2023/07/18 00:32:47;;;;;;;1999.90;999.90;;;;;;;24.89;45.23;102156.13;5052728;28;20033;-71
2023/07/18 00:35:16;;;;;;;1999.90;999.90;;;;;;;25.49;44.05;102146.88;5051925;28;20373;-71
2023/07/18 00:37:42;;;;;;;1999.90;999.90;;;;;;;25.43;44.21;102154.34;5052284;28;20084;-71
2023/07/18 00:40:12;;;;;;;1999.90;999.90;;;;;;;25.31;43.87;102146.00;5070802;28;20029;-72
2023/07/18 00:42:39;;;;;;;1999.90;999.90;;;;;;;25.06;44.82;102159.78;5051443;28;20028;-72
2023/07/18 00:45:06;;;;;;;1999.90;999.90;;;;;;;24.24;45.97;102163.69;5052611;28;20027;-71
2023/07/18 00:47:41;;;;;;;1999.90;999.90;;;;;;;24.37;46.53;102169.31;5052951;28;20024;-71
2023/07/18 00:50:09;;;;;;;1999.90;999.90;;;;;;;24.40;46.33;102166.50;5052573;28;20028;-71
2023/07/18 00:52:37;;;;;;;1999.90;999.90;;;;;;;23.96;46.90;102164.06;5052322;28;20340;-71
2023/07/18 00:55:03;;;;;;;1999.90;999.90;;;;;;;24.10;46.41;102167.00;5051800;28;20147;-71
2023/07/18 00:57:29;;;;;;;1999.90;999.90;;;;;;;24.13;46.63;102160.66;5052747;28;20020;-71
2023/07/18 00:59:55;;;;;;;1999.90;999.90;;;;;;;24.26;46.29;102160.94;5069655;28;20508;-71
2023/07/18 01:02:21;;;;;;;1999.90;999.90;;;;;;;23.38;48.13;102153.25;5052052;28;20052;-72
2023/07/18 01:04:47;;;;;;;1999.90;999.90;;;;;;;23.59;48.47;102155.03;5052292;28;20020;-71
2023/07/18 01:07:13;;;;;;;1999.90;999.90;;;;;;;23.96;47.32;102169.41;5052315;28;20017;-71
2023/07/18 01:09:38;;;;;;;1999.90;999.90;;;;;;;23.92;47.74;102162.47;5051012;28;20056;-71
2023/07/18 01:12:04;;;;;;;1999.90;999.90;;;;;;;23.99;47.10;102163.97;5052367;28;20026;-71
2023/07/18 01:14:30;;;;;;;1999.90;999.90;;;;;;;24.11;47.54;102160.72;5070361;28;20407;-71
2023/07/18 01:16:55;;;;;;;1999.90;999.90;;;;;;;23.62;48.28;102149.56;5051085;28;20024;-71
2023/07/18 01:19:21;;;;;;;1999.90;999.90;;;;;;;24.29;46.50;102155.44;5052292;28;20017;-71
2023/07/18 01:21:47;;;;;;;1999.90;999.90;;;;;;;24.47;46.09;102140.34;5051772;28;20059;-71
2023/07/18 01:24:12;;;;;;;1999.90;999.90;;;;;;;24.75;45.32;102137.22;5051922;28;20484;-72
2023/07/18 01:26:37;;;;;;;1999.90;999.90;;;;;;;24.15;46.66;102137.41;5051988;28;20024;-71
2023/07/18 01:29:03;;;;;;;1999.90;999.90;;;;;;;23.71;47.48;102144.69;5069962;28;20021;-71
2023/07/18 01:31:30;;;;;;;1999.90;999.90;;;;;;;23.84;47.14;102141.47;5051619;28;20032;-71
2023/07/18 01:33:56;;;;;;;1999.90;999.90;;;;;;;24.03;46.60;102139.72;5051661;28;20035;-71
2023/07/18 01:36:22;;;;;;;1999.90;999.90;;;;;;;24.24;46.74;102130.78;5052181;28;20021;-71
2023/07/18 01:38:47;;;;;;;1999.90;999.90;;;;;;;24.55;45.80;102135.47;5051219;28;20131;-71
2023/07/18 01:41:13;;;;;;;1999.90;999.90;;;;;;;23.87;47.35;102139.50;5051855;28;20108;-72
2023/07/18 01:43:38;;;;;;;1999.90;999.90;;;;;;;24.31;46.27;102132.22;5051675;28;20032;-71
2023/07/18 01:46:04;;;;;;;1999.90;999.90;;;;;;;24.21;46.18;102127.28;5051165;28;20017;-71
2023/07/18 01:48:29;;;;;;;1999.90;999.90;;;;;;;24.48;45.75;102128.72;5052451;28;20025;-71
2023/07/18 01:50:56;;;;;;;1999.90;999.90;;;;;;;24.49;45.72;102115.28;5051334;28;20020;-71
2023/07/18 01:53:21;;;;;;;1999.90;999.90;;;;;;;24.38;45.88;102113.13;5051296;28;20035;-71
2023/07/18 01:55:47;;;;;;;1999.90;999.90;;;;;;;24.20;45.81;102120.22;5065732;28;20052;-71
2023/07/18 01:58:12;;;;;;;1999.90;999.90;;;;;;;23.79;47.04;102122.97;5090873;28;20093;-71
2023/07/18 02:00:38;;;;;;;1999.90;999.90;;;;;;;23.92;47.03;102122.44;5092472;28;20020;-71
2023/07/18 02:03:05;;;;;;;1999.90;999.90;;;;;;;24.29;45.82;102118.94;5092915;28;20119;-71
2023/07/18 02:05:31;;;;;;;1999.90;999.90;;;;;;;23.99;46.33;102119.44;5091921;28;20027;-71
2023/07/18 02:08:01;;;;;;;1999.90;999.90;;;;;;;24.05;46.38;102120.94;5092278;28;20094;-71
2023/07/18 02:10:26;;;;;;;1999.90;999.90;;;;;;;23.65;47.24;102117.41;5092705;28;20051;-71
2023/07/18 02:12:53;;;;;;;1999.90;999.90;;;;;;;23.84;46.90;102106.75;5091519;28;20051;-71
2023/07/18 02:15:20;;;;;;;1999.90;999.90;;;;;;;24.04;46.42;102113.84;5092919;28;20651;-71
2023/07/18 02:17:46;;;;;;;1999.90;999.90;;;;;;;24.10;46.19;102113.59;5092338;28;20032;-71
2023/07/18 02:20:14;;;;;;;1999.90;999.90;;;;;;;23.44;47.62;102109.41;5091753;28;20130;-71
2023/07/18 02:22:43;;;;;;;1999.90;999.90;;;;;;;23.16;48.46;102109.75;5092380;28;20053;-71
2023/07/18 02:25:09;;;;;;;1999.90;999.90;;;;;;;23.24;48.42;102109.44;5092288;28;20069;-71
2023/07/18 02:27:39;;;;;;;1999.90;999.90;;;;;;;23.94;46.24;102107.22;5091192;28;20096;-70
2023/07/18 02:30:11;;;;;;;1999.90;999.90;;;;;;;24.17;45.91;102093.66;5092466;28;20028;-71
2023/07/18 02:32:40;;;;;;;1999.90;999.90;;;;;;;23.59;47.16;102101.66;5091431;28;20126;-71
2023/07/18 02:35:07;;;;;;;1999.90;999.90;;;;;;;23.17;48.01;102099.00;5091633;28;20020;-71
2023/07/18 02:37:35;;;;;;;1999.90;999.90;;;;;;;23.16;47.85;102105.31;5093500;28;20027;-71
2023/07/18 02:40:08;;;;;;;1999.90;999.90;;;;;;;22.80;48.32;102107.69;5091993;28;20027;-71
2023/07/18 02:42:37;;;;;;;1999.90;999.90;;;;;;;23.12;48.04;102098.38;5091479;28;20452;-70
2023/07/18 02:45:03;;;;;;;1999.90;999.90;;;;;;;23.10;47.65;102105.53;5092133;28;20020;-71
2023/07/18 02:47:28;;;;;;;1999.90;999.90;;;;;;;23.19;47.67;102113.16;5091204;28;20048;-71
2023/07/18 02:49:54;;;;;;;1999.90;999.90;;;;;;;23.08;47.94;102110.06;5091576;28;20070;-71
2023/07/18 02:52:20;;;;;;;1999.90;999.90;;;;;;;22.98;47.82;102116.69;5092139;28;20026;-72
2023/07/18 02:54:45;;;;;;;1999.90;999.90;;;;;;;22.50;48.86;102116.88;5091617;28;20024;-71
2023/07/18 02:57:10;;;;;;;1999.90;999.90;;;;;;;22.70;48.84;102112.53;5054561;28;20461;-71
2023/07/18 02:59:36;;;;;;;1999.90;999.90;;;;;;;21.98;50.66;102114.41;5054360;28;20029;-72
2023/07/18 03:02:01;;;;;;;1999.90;999.90;;;;;;;22.05;50.28;102109.72;5054507;28;20092;-71
2023/07/18 03:04:27;;;;;;;1999.90;999.90;;;;;;;22.84;48.70;102109.28;5072849;28;20029;-71
2023/07/18 03:06:53;;;;;;;1999.90;999.90;;;;;;;22.36;50.39;102114.75;5054034;28;20070;-71
2023/07/18 03:09:19;;;;;;;1999.90;999.90;;;;;;;22.30;50.05;102114.97;5053677;28;20400;-71
2023/07/18 03:11:45;;;;;;;1999.90;999.90;;;;;;;22.40;50.10;102112.84;5054249;28;20066;-71
2023/07/18 03:14:11;;;;;;;1999.90;999.90;;;;;;;22.69;48.98;102110.78;5072542;28;20024;-71
2023/07/18 03:16:38;;;;;;;1999.90;999.90;;;;;;;22.76;49.12;102114.94;5053536;28;20027;-71
2023/07/18 03:19:04;;;;;;;1999.90;999.90;;;;;;;22.85;48.70;102101.22;5054237;28;20029;-72
2023/07/18 03:21:30;;;;;;;1999.90;999.90;;;;;;;22.17;50.21;102109.25;5054814;28;20040;-72
2023/07/18 03:23:55;;;;;;;1999.90;999.90;;;;;;;22.53;49.71;102106.09;5053056;28;20039;-72
2023/07/18 03:26:21;;;;;;;1999.90;999.90;;;;;;;22.90;48.50;102103.69;5054332;28;20038;-71
2023/07/18 03:28:46;;;;;;;1999.90;999.90;;;;;;;22.62;49.29;102099.50;5071660;28;20037;-71
2023/07/18 03:31:12;;;;;;;1999.90;999.90;;;;;;;22.46;49.33;102109.94;5053343;28;20032;-71
2023/07/18 03:33:37;;;;;;;1999.90;999.90;;;;;;;22.55;49.52;102113.16;5053661;28;20139;-72
2023/07/18 03:36:04;;;;;;;1999.90;999.90;;;;;;;22.45;49.81;102117.97;5054189;28;20035;-71
2023/07/18 03:38:30;;;;;;;1999.90;999.90;;;;;;;22.64;49.00;102107.44;5071438;28;20485;-72
2023/07/18 03:40:57;;;;;;;1999.90;999.90;;;;;;;22.74;48.73;102108.81;5053455;28;20111;-71
2023/07/18 03:43:22;;;;;;;1999.90;999.90;;;;;;;21.93;51.20;102111.06;5072295;28;20460;-72
2023/07/18 03:45:49;;;;;;;1999.90;999.90;;;;;;;22.47;49.72;102106.31;5070740;28;20058;-71
2023/07/18 03:48:14;;;;;;;1999.90;999.90;;;;;;;22.19;50.46;102118.03;5071970;28;20036;-71
2023/07/18 03:50:40;;;;;;;1999.90;999.90;;;;;;;22.08;50.65;102114.03;5052804;28;20400;-71
2023/07/18 03:53:05;;;;;;;1999.90;999.90;;;;;;;21.56;51.73;102114.22;5053665;28;20093;-71
2023/07/18 03:55:31;;;;;;;1999.90;999.90;;;;;;;21.35;53.06;102108.72;5063468;28;20095;-72
2023/07/18 03:57:56;;;;;;;1999.90;999.90;;;;;;;22.35;50.38;102109.47;5091055;28;20027;-71
2023/07/18 04:00:22;;;;;;;1999.90;999.90;;;;;;;21.81;52.00;102109.72;5090844;28;20028;-72
2023/07/18 04:02:49;;;;;;;1999.90;999.90;;;;;;;21.56;52.84;102111.56;5090365;28;20056;-71
2023/07/18 04:05:16;;;;;;;1999.90;999.90;;;;;;;21.48;53.70;102109.13;5089912;28;20035;-71
2023/07/18 04:07:43;;;;;;;1999.90;999.90;;;;;;;21.90;52.48;102104.97;5090115;28;20123;-72
2023/07/18 04:10:13;;;;;;;1999.90;999.90;;;;;;;21.45;54.01;102109.25;5090519;28;20032;-72
2023/07/18 04:12:42;;;;;;;1999.90;999.90;;;;;;;21.47;53.42;102107.38;5089254;28;20395;-72
2023/07/18 04:15:08;;;;;;;1999.90;999.90;;;;;;;21.55;53.29;102104.50;5090414;28;20399;-71
2023/07/18 04:17:38;;;;;;;1999.90;999.90;;;;;;;21.74;52.83;102105.53;5090039;28;20494;-71
2023/07/18 04:20:05;;;;;;;1999.90;999.90;;;;;;;21.30;54.29;102100.00;5090097;28;20020;-71
2023/07/18 04:22:30;;;;;;;1999.90;999.90;;;;;;;21.64;53.02;102099.69;5090226;28;20052;-72
2023/07/18 04:24:56;;;;;;;1999.90;999.90;;;;;;;21.83;52.40;102104.31;5089825;28;20444;-71
2023/07/18 04:27:23;;;;;;;1999.90;999.90;;;;;;;22.38;50.50;102101.38;5090801;28;20052;-72
2023/07/18 04:29:49;;;;;;;1999.90;999.90;;;;;;;22.11;51.49;102093.50;5089389;28;20032;-71
2023/07/18 04:32:17;;;;;;;1999.90;999.90;;;;;;;22.07;52.05;102102.53;5089981;28;20028;-72
2023/07/18 04:34:42;;;;;;;1999.90;999.90;;;;;;;22.61;50.49;102091.59;5090263;28;20032;-72
2023/07/18 04:37:08;;;;;;;1999.90;999.90;;;;;;;22.53;50.37;102084.78;5091009;28;20028;-72
2023/07/18 04:39:36;;;;;;;1999.90;999.90;;;;;;;22.63;50.00;102087.06;5089490;28;20078;-72
2023/07/18 04:42:02;;;;;;;1999.90;999.90;;;;;;;21.93;51.76;102089.75;5089336;28;20122;-71
2023/07/18 04:44:27;;;;;;;1999.90;999.90;;;;;;;22.78;49.66;102089.09;5089959;28;20119;-71
2023/07/18 04:46:52;;;;;;;1999.90;999.90;;;;;;;22.62;50.38;102093.31;5088816;28;20036;-72
2023/07/18 04:49:19;;;;;;;1999.90;999.90;;;;;;;22.55;50.55;102089.19;5089725;28;20467;-71
2023/07/18 04:51:44;;;;;;;1999.90;999.90;;;;;;;22.04;52.73;102086.69;5089169;28;20031;-71
2023/07/18 04:54:10;;;;;;;1999.90;999.90;;;;;;;22.71;50.92;102084.97;5090203;28;20527;-71
2023/07/18 04:56:35;;;;;;;1999.90;999.90;;;;;;;23.40;49.53;102081.16;5088933;28;20060;-72
2023/07/18 04:59:00;;;;;;;1999.90;999.90;;;;;;;24.36;47.07;102076.75;5089745;28;20079;-71
2023/07/18 05:01:28;;;;;;;1999.90;999.90;;;;;;;24.02;46.53;102078.38;5088834;28;20047;-72
2023/07/18 05:03:54;;;;;;;1999.90;999.90;;;;;;;23.11;48.75;102074.38;5089805;28;20189;-71
2023/07/18 05:06:19;;;;;;;1999.90;999.90;;;;;;;23.19;49.10;102073.16;5090737;28;20093;-71
2023/07/18 05:08:45;;;;;;;1999.90;999.90;;;;;;;22.85;49.95;102076.38;5089523;28;20026;-70
2023/07/18 05:11:10;;;;;;;1999.90;999.90;;;;;;;23.50;48.99;102071.78;5089405;28;20118;-72
2023/07/18 05:13:35;;;;;;;1999.90;999.90;;;;;;;23.22;49.31;102072.16;5089908;28;20102;-72
2023/07/18 05:16:01;;;;;;;1999.90;999.90;;;;;;;23.27;49.42;102064.81;5090006;28;20484;-71
2023/07/18 05:18:27;;;;;;;1999.90;999.90;;;;;;;23.00;50.86;102053.53;5089247;28;20046;-71
2023/07/18 05:20:58;;;;;;;1999.90;999.90;;;;;;;23.03;50.89;102061.41;5088997;28;20020;-71
2023/07/18 05:23:24;;;;;;;1999.90;999.90;;;;;;;23.01;50.83;102057.91;5088268;28;20023;-72
2023/07/18 05:25:50;;;;;;;1999.90;999.90;;;;;;;23.14;50.52;102060.97;5088879;28;20023;-71
2023/07/18 05:28:15;;;;;;;1999.90;999.90;;;;;;;23.88;48.69;102063.84;5089231;28;20020;-72
2023/07/18 05:30:41;;;;;;;1999.90;999.90;;;;;;;23.20;50.31;102066.91;5087732;28;20020;-72
2023/07/18 05:33:07;;;;;;;1999.90;999.90;;;;;;;23.24;50.73;102069.44;5089128;28;20170;-71
2023/07/18 05:35:33;;;;;;;1999.90;999.90;;;;;;;23.27;50.07;102067.47;5088884;28;20027;-72
2023/07/18 05:38:01;;;;;;;1999.90;999.90;;;;;;;22.97;51.51;102072.31;5088318;28;20032;-72
2023/07/18 05:40:27;;;;;;;1999.90;999.90;;;;;;;23.34;51.23;102076.06;5088885;28;20487;-71
2023/07/18 05:42:52;;;;;;;1999.90;999.90;;;;;;;22.45;53.55;102089.53;5088587;28;20031;-72
2023/07/18 05:45:18;;;;;;;1999.90;999.90;;;;;;;22.95;52.94;102085.72;5088086;28;20028;-71
2023/07/18 05:47:43;;;;;;;1999.90;999.90;;;;;;;23.04;52.99;102073.81;5088624;28;20027;-71
2023/07/18 05:50:09;;;;;;;1999.90;999.90;;;;;;;22.70;53.68;102085.88;5088210;28;20023;-72
2023/07/18 05:52:34;;;;;;;1999.90;999.90;;;;;;;23.04;53.00;102079.13;5088545;28;20111;-71
2023/07/18 05:55:00;;;;;;;1999.90;999.90;;;;;;;23.39;51.77;102090.09;5086579;28;20070;-72
2023/07/18 05:57:26;;;;;;;1999.90;999.90;;;;;;;23.06;54.01;102087.06;5069891;28;20167;-72
2023/07/18 05:59:51;;;;;;;1999.90;999.90;;;;;;;22.46;55.85;102088.63;5051241;28;20020;-72
2023/07/18 06:02:17;;;;;;;1999.90;999.90;;;;;;;23.54;52.34;102081.38;5051802;28;20116;-72
2023/07/18 06:04:42;;;;;;;1999.90;999.90;;;;;;;22.36;57.45;102089.91;5050813;28;20028;-72
2023/07/18 06:07:08;;;;;;;1999.90;999.90;;;;;;;23.45;53.44;102088.94;5051474;28;20439;-72
2023/07/18 06:09:37;;;;;;;1999.90;999.90;;;;;;;23.04;54.42;102089.81;5051313;28;20112;-71
2023/07/18 06:12:02;;;;;;;1999.90;999.90;;;;;;;22.98;55.02;102095.38;5051232;28;20032;-72
2023/07/18 06:14:28;;;;;;;1999.90;999.90;;;;;;;23.57;53.72;102093.72;5051688;28;20052;-71
2023/07/18 06:16:53;;;;;;;1999.90;999.90;;;;;;;22.47;57.01;102100.13;5051315;28;20029;-72
2023/07/18 06:19:19;;;;;;;1999.90;999.90;;;;;;;23.45;54.83;102094.28;5050972;28;20135;-72
2023/07/18 06:21:45;;;;;;;1999.90;999.90;;;;;;;24.58;51.40;102099.72;5051333;28;20033;-72
2023/07/18 06:24:10;;;;;;;1999.90;999.90;;;;;;;23.64;53.61;102110.31;5051880;28;20028;-72
2023/07/18 06:26:35;;;;;;;1999.90;999.90;;;;;;;23.95;53.88;102108.97;5050608;28;20484;-71
2023/07/18 06:29:01;;;;;;;1999.90;999.90;;;;;;;23.57;53.89;102108.88;5051437;28;20024;-72
2023/07/18 06:31:28;;;;;;;1999.90;999.90;;;;;;;24.67;50.87;102107.34;5051356;28;20039;-72
2023/07/18 06:33:54;;;;;;;1999.90;999.90;;;;;;;24.06;52.75;102109.31;5050876;28;20032;-72
2023/07/18 06:36:20;;;;;;;1999.90;999.90;;;;;;;25.44;49.08;102108.78;5051622;28;20036;-72
2023/07/18 06:38:46;;;;;;;1999.90;999.90;;;;;;;25.97;47.58;102114.00;5051042;28;20036;-71
2023/07/18 06:41:12;;;;;;;1999.90;999.90;;;;;;;28.05;43.53;102106.25;5050653;28;20131;-72
2023/07/18 06:43:39;;;;;;;1999.90;999.90;;;;;;;28.36;41.69;102115.03;5052656;28;20502;-72
2023/07/18 06:46:04;;;;;;;1999.90;999.90;;;;;;;26.63;44.89;102110.28;5054826;28;20128;-72
2023/07/18 06:48:30;;;;;;;1999.90;999.90;;;;;;;27.82;43.42;102105.88;5054277;28;20111;-72
2023/07/18 06:50:58;;;;;;;1999.90;999.90;;;;;;;29.21;40.61;102102.13;5054679;28;20036;-72
2023/07/18 06:53:23;;;;;;;1999.90;999.90;;;;;;;29.06;40.13;102103.22;5054942;28;20028;-72
2023/07/18 06:55:49;;;;;;;1999.90;999.90;;;;;;;30.77;37.91;102103.53;5068332;28;20135;-72
2023/07/18 06:58:18;;;;;;;1999.90;999.90;;;;;;;30.70;36.70;102107.69;5091933;28;20016;-71
2023/07/18 07:00:45;;;;;;;1999.90;999.90;;;;;;;29.65;38.79;102100.00;5090310;28;20073;-72
2023/07/18 07:03:13;;;;;;;1999.90;999.90;;;;;;;30.42;37.72;102098.94;5091635;28;20056;-70
2023/07/18 07:05:40;;;;;;;1999.90;999.90;;;;;;;30.20;38.13;102081.66;5091439;28;20028;-72
2023/07/18 07:08:08;;;;;;;1999.90;999.90;;;;;;;31.56;35.85;102090.22;5091063;28;20024;-71
2023/07/18 07:10:41;;;;;;;1999.90;999.90;;;;;;;32.59;34.27;102093.59;5090996;28;20115;-69
2023/07/18 07:13:07;;;;;;;1999.90;999.90;;;;;;;33.52;31.88;102089.25;5091341;28;20032;-70
2023/07/18 07:15:36;;;;;;;1999.90;999.90;;;;;;;33.13;32.72;102080.91;5090932;28;20034;-70
2023/07/18 07:18:05;;;;;;;1999.90;999.90;;;;;;;34.06;30.91;102084.44;5091152;28;20480;-71
2023/07/18 07:20:37;;;;;;;1999.90;999.90;;;;;;;34.86;30.87;102086.22;5091119;28;20020;-70
2023/07/18 07:23:02;;;;;;;1999.90;999.90;;;;;;;33.14;32.56;102090.75;5090948;28;20028;-71
2023/07/18 07:25:29;;;;;;;1999.90;999.90;;;;;;;34.00;31.39;102085.00;5091174;28;20035;-70
2023/07/18 07:27:56;;;;;;;1999.90;999.90;;;;;;;32.73;32.94;102085.19;5090681;28;20105;-70
2023/07/18 07:30:21;;;;;;;1999.90;999.90;;;;;;;33.04;32.25;102082.53;5090094;28;20024;-70
2023/07/18 07:32:51;;;;;;;1999.90;999.90;;;;;;;34.82;30.03;102081.06;5090400;28;20135;-70
2023/07/18 07:35:18;;;;;;;1999.90;999.90;;;;;;;34.82;30.01;102091.09;5092281;28;20027;-70
2023/07/18 07:37:44;;;;;;;1999.90;999.90;;;;;;;33.57;31.68;102086.97;5089311;28;20430;-70
2023/07/18 07:40:11;;;;;;;1999.90;999.90;;;;;;;33.50;32.11;102085.81;5090641;28;20034;-70
2023/07/18 07:42:38;;;;;;;1999.90;999.90;;;;;;;33.98;31.60;102082.44;5090259;28;20031;-70
2023/07/18 07:45:04;;;;;;;1999.90;999.90;;;;;;;32.78;32.58;102076.69;5090349;28;20487;-70
2023/07/18 07:47:30;;;;;;;1999.90;999.90;;;;;;;34.25;31.59;102083.63;5090669;28;20032;-71
2023/07/18 07:49:55;;;;;;;1999.90;999.90;;;;;;;34.76;30.17;102081.63;5089042;28;20410;-71
2023/07/18 07:52:20;;;;;;;1999.90;999.90;;;;;;;33.90;31.07;102074.13;5090693;28;20028;-70
2023/07/18 07:54:48;;;;;;;1999.90;999.90;;;;;;;34.70;30.86;102078.66;5088182;28;20020;-70
2023/07/18 07:57:14;;;;;;;1999.90;999.90;;;;;;;34.43;30.13;102080.22;5053021;28;20048;-70
2023/07/18 07:59:39;;;;;;;1999.90;999.90;;;;;;;36.49;28.08;102074.84;5070852;28;20121;-71
2023/07/18 08:02:05;;;;;;;1999.90;999.90;;;;;;;35.83;30.08;102068.72;5071569;28;20036;-71
2023/07/18 08:04:31;;;;;;;1999.90;999.90;;;;;;;36.49;28.10;102069.41;5052765;28;20036;-71
2023/07/18 08:06:56;;;;;;;1999.90;999.90;;;;;;;36.29;27.86;102071.44;5052781;28;20058;-70
2023/07/18 08:09:24;;;;;;;1999.90;999.90;;;;;;;35.40;29.09;102072.94;5053206;28;20024;-71
2023/07/18 08:11:50;;;;;;;1999.90;999.90;;;;;;;35.37;29.23;102062.38;5069888;28;20024;-71
2023/07/18 08:14:17;;;;;;;1999.90;999.90;;;;;;;34.39;30.24;102070.66;5053161;28;20115;-71
2023/07/18 08:16:42;;;;;;;1999.90;999.90;;;;;;;34.17;30.41;102072.63;5052179;28;20111;-71
2023/07/18 08:19:08;;;;;;;1999.90;999.90;;;;;;;34.69;29.91;102071.50;5052334;28;20131;-71
2023/07/18 08:21:36;;;;;;;1999.90;999.90;;;;;;;34.22;29.34;102067.59;5052672;28;20119;-70
2023/07/18 08:24:02;;;;;;;1999.90;999.90;;;;;;;31.84;32.90;102079.91;5052599;28;20032;-70
2023/07/18 08:26:27;;;;;;;1999.90;999.90;;;;;;;32.21;32.90;102071.50;5052173;28;20681;-71
2023/07/18 08:28:53;;;;;;;1999.90;999.90;;;;;;;33.41;31.09;102067.66;5052340;28;20032;-71
2023/07/18 08:31:19;;;;;;;1999.90;999.90;;;;;;;33.08;31.00;102061.47;5052734;28;20032;-71
2023/07/18 08:33:45;;;;;;;1999.90;999.90;;;;;;;32.85;31.54;102069.78;5051625;28;20028;-70
2023/07/18 08:36:10;;;;;;;1999.90;999.90;;;;;;;31.83;33.79;102072.75;5052540;28;20559;-70
2023/07/18 08:38:36;;;;;;;1999.90;999.90;;;;;;;33.05;32.23;102064.47;5052104;28;20039;-71
2023/07/18 08:41:01;;;;;;;1999.90;999.90;;;;;;;33.38;31.92;102054.41;5052089;28;20021;-71
2023/07/18 08:43:27;;;;;;;1999.90;999.90;;;;;;;34.76;29.76;102059.91;5052690;28;20410;-71
2023/07/18 08:45:53;;;;;;;1999.90;999.90;;;;;;;32.23;32.81;102066.81;5051966;28;20032;-71
2023/07/18 08:48:19;;;;;;;1999.90;999.90;;;;;;;32.19;33.57;102062.66;5051774;28;20392;-72
2023/07/18 08:50:44;;;;;;;1999.90;999.90;;;;;;;31.60;32.38;102058.41;5051532;28;20028;-71
2023/07/18 08:53:10;;;;;;;1999.90;999.90;;;;;;;32.46;32.12;102061.31;5051715;28;20021;-71
2023/07/18 08:55:36;;;;;;;1999.90;999.90;;;;;;;33.79;31.12;102060.69;5062737;28;20063;-71
2023/07/18 08:58:02;;;;;;;1999.90;999.90;;;;;;;32.42;32.71;102073.38;5089229;28;20028;-72
2023/07/18 09:00:28;;;;;;;1999.90;999.90;;;;;;;33.63;30.96;102061.19;5088410;28;20016;-71
2023/07/18 09:02:54;;;;;;;1999.90;999.90;;;;;;;32.46;32.63;102061.31;5088141;28;20082;-71
2023/07/18 09:05:29;;;;;;;1999.90;999.90;;;;;;;32.13;32.60;102055.00;5090841;28;20031;-71
2023/07/18 09:07:56;;;;;;;1999.90;999.90;;;;;;;33.83;31.20;102043.16;5087834;28;20035;-70
2023/07/18 09:10:22;;;;;;;1999.90;999.90;;;;;;;33.01;31.96;102049.47;5088787;28;20028;-71
2023/07/18 09:12:47;;;;;;;1999.90;999.90;;;;;;;33.59;31.42;102038.94;5088510;28;20024;-71
2023/07/18 09:15:20;;;;;;;1999.90;999.90;;;;;;;29.32;37.18;102052.06;5088355;28;20020;-71
2023/07/18 09:17:57;;;;;;;1999.90;999.90;;;;;;;31.03;34.51;102046.72;5088627;28;20481;-71
2023/07/18 09:20:24;;;;;;;1999.90;999.90;;;;;;;31.19;34.82;102039.13;5088713;28;20475;-71
2023/07/18 09:22:55;;;;;;;1999.90;999.90;;;;;;;31.77;34.46;102030.88;5087595;28;20028;-70
2023/07/18 09:25:20;;;;;;;1999.90;999.90;;;;;;;32.55;31.99;102030.78;5089019;28;20073;-71
2023/07/18 09:27:50;;;;;;;1999.90;999.90;;;;;;;32.68;32.04;102027.03;5088428;28;20032;-70
2023/07/18 09:30:27;;;;;;;1999.90;999.90;;;;;;;31.46;33.53;102035.19;5088137;28;20115;-71
2023/07/18 09:32:53;;;;;;;1999.90;999.90;;;;;;;32.52;32.49;102038.28;5088288;28;20028;-71
2023/07/18 09:35:19;;;;;;;1999.90;999.90;;;;;;;32.39;33.03;102027.66;5087975;28;20024;-71
2023/07/18 09:37:48;;;;;;;1999.90;999.90;;;;;;;31.54;33.92;102027.31;5089480;28;20031;-71
2023/07/18 09:40:16;;;;;;;1999.90;999.90;;;;;;;33.52;30.97;102035.03;5088609;28;20060;-71
2023/07/18 09:42:46;;;;;;;1999.90;999.90;;;;;;;32.54;32.87;102031.75;5087531;28;20024;-71
2023/07/18 09:45:13;;;;;;;1999.90;999.90;;;;;;;33.21;31.29;102029.63;5088532;28;20028;-70
2023/07/18 09:47:41;;;;;;;1999.90;999.90;;;;;;;33.14;30.94;102026.59;5088227;28;20028;-71
2023/07/18 09:50:07;;;;;;;1999.90;999.90;;;;;;;32.86;32.19;102020.03;5088860;28;20501;-71
2023/07/18 09:52:36;;;;;;;1999.90;999.90;;;;;;;34.63;30.69;102016.78;5089838;28;20024;-72
2023/07/18 09:55:06;;;;;;;1999.90;999.90;;;;;;;34.45;29.77;102018.53;5085895;28;20020;-71
2023/07/18 09:57:35;;;;;;;1999.90;999.90;;;;;;;33.20;30.54;102019.78;5068681;28;20121;-71
2023/07/18 10:00:05;;;;;;;1999.90;999.90;;;;;;;34.16;29.23;102019.38;5051352;28;20542;-71
2023/07/18 10:02:33;;;;;;;1999.90;999.90;;;;;;;35.45;27.59;102019.84;5051672;28;20127;-71
2023/07/18 10:05:02;;;;;;;1999.90;999.90;;;;;;;35.12;29.13;102015.84;5049991;28;20067;-70
2023/07/18 10:07:29;;;;;;;1999.90;999.90;;;;;;;36.14;27.08;102005.81;5051502;28;20051;-71
2023/07/18 10:09:56;;;;;;;1999.90;999.90;;;;;;;37.22;25.13;102000.13;5068845;28;20416;-71
2023/07/18 10:12:22;;;;;;;1999.90;999.90;;;;;;;36.19;26.54;102006.22;5050665;28;20036;-71
2023/07/18 10:14:56;;;;;;;1999.90;999.90;;;;;;;35.40;25.86;102003.13;5050749;28;20203;-71
2023/07/18 10:17:40;;;;;;;1999.90;999.90;;;;;;;35.07;26.65;101989.09;5051368;28;20441;-71
2023/07/18 10:20:22;;;;;;;1999.90;999.90;;;;;;;35.84;26.64;101989.72;5054973;28;20040;-71
2023/07/18 10:22:57;;;;;;;1999.90;999.90;;;;;;;34.18;27.08;101984.81;5054564;28;20032;-71
2023/07/18 10:25:25;;;;;;;1999.90;999.90;;;;;;;34.23;28.24;101977.09;5054746;28;20040;-71
2023/07/18 10:27:51;;;;;;;1999.90;999.90;;;;;;;34.78;26.77;101976.44;5054566;28;20052;-71
2023/07/18 10:30:19;;;;;;;1999.90;999.90;;;;;;;36.32;25.71;101970.44;5055178;28;20117;-71
2023/07/18 10:32:56;;;;;;;1999.90;999.90;;;;;;;37.21;25.67;101965.72;5053659;28;20016;-71
2023/07/18 10:35:26;;;;;;;1999.90;999.90;;;;;;;36.87;24.69;101958.41;5054978;28;20032;-71
2023/07/18 10:38:13;;;;;;;1999.90;999.90;;;;;;;35.85;24.66;101968.84;5072311;28;20480;-71
2023/07/18 10:40:44;;;;;;;1999.90;999.90;;;;;;;34.76;28.15;101961.31;5053740;28;20472;-71
2023/07/18 10:43:11;;;;;;;1999.90;999.90;;;;;;;35.56;27.53;101964.44;5054689;28;20059;-71
2023/07/18 10:45:38;;;;;;;1999.90;999.90;;;;;;;34.65;26.92;101968.66;5053593;28;20028;-71